Time;durP1;ratioP1;P1;durP2;ratioP2;P2;SDS_P1;SDS_P2;PMS_P1;PMS_P2;Temp;Humidity;BMP_temperature;BMP_pressure;BME280_temperature;BME280_humidity;BME280_pressure;Samples;Min_cycle;Max_cycle;Signal;HPM_P1;HPM_P2
2023/07/30 00:00:10;;;;;;;2.15;1.95;;;;;;;16.25;100.00;92770.88;2098319;28;20044;-81
2023/07/30 00:01:13;;;;;;;3.65;1.77;;;;;;;16.09;100.00;92776.66;2098947;28;20024;-80
2023/07/30 00:02:14;;;;;;;2.45;1.80;;;;;;;16.42;100.00;92773.91;2099285;28;20055;-80
2023/07/30 00:03:15;;;;;;;3.00;2.05;;;;;;;16.52;100.00;92780.72;2099058;28;20028;-80
2023/07/30 00:04:15;;;;;;;2.22;2.03;;;;;;;16.46;100.00;92787.19;2114812;28;20019;-80
2023/07/30 00:05:17;;;;;;;3.30;1.90;;;;;;;16.29;100.00;92778.78;2098799;28;20393;-79
2023/07/30 00:06:17;;;;;;;2.63;1.80;;;;;;;16.40;100.00;92781.69;2090049;28;20531;-81
2023/07/30 00:07:18;;;;;;;2.55;2.20;;;;;;;16.33;100.00;92777.41;2082146;28;20083;-81
2023/07/30 00:08:20;;;;;;;6.25;2.10;;;;;;;16.30;100.00;92782.97;2105397;28;20043;-80
2023/07/30 00:09:21;;;;;;;3.85;2.13;;;;;;;16.24;100.00;92784.78;2106489;28;20095;-80
2023/07/30 00:10:22;;;;;;;3.45;2.28;;;;;;;16.36;100.00;92786.50;2098350;28;20195;-80
2023/07/30 00:11:23;;;;;;;3.65;2.10;;;;;;;16.25;100.00;92781.66;2094543;28;20469;-80
2023/07/30 00:12:24;;;;;;;2.95;2.10;;;;;;;16.15;100.00;92790.25;2090380;28;20188;-80
2023/07/30 00:13:25;;;;;;;3.03;2.00;;;;;;;16.30;100.00;92791.06;2102999;28;20024;-80
2023/07/30 00:14:26;;;;;;;4.22;2.17;;;;;;;16.32;100.00;92785.94;2106951;28;20412;-80
2023/07/30 00:15:34;;;;;;;2.40;1.95;;;;;;;16.28;100.00;92796.91;2098336;28;20016;-80
2023/07/30 00:16:35;;;;;;;3.20;2.28;;;;;;;16.19;100.00;92783.47;2106548;28;20143;-79
2023/07/30 00:17:36;;;;;;;3.95;2.17;;;;;;;16.01;100.00;92797.81;2104427;28;20447;-79
2023/07/30 00:18:37;;;;;;;4.68;2.45;;;;;;;16.05;100.00;92803.78;2100692;28;20032;-80
2023/07/30 00:19:38;;;;;;;5.22;2.20;;;;;;;16.10;100.00;92803.16;2102302;28;20028;-79
2023/07/30 00:20:39;;;;;;;2.83;2.30;;;;;;;16.24;100.00;92806.38;2106952;28;20024;-80
2023/07/30 00:21:39;;;;;;;2.60;2.20;;;;;;;16.16;100.00;92803.28;2106363;28;20052;-80
2023/07/30 00:22:40;;;;;;;3.05;2.45;;;;;;;16.04;100.00;92802.31;2112833;28;20031;-79
2023/07/30 00:23:41;;;;;;;2.65;2.25;;;;;;;15.97;100.00;92796.50;2105829;28;20427;-79
2023/07/30 00:24:42;;;;;;;4.05;2.30;;;;;;;15.90;100.00;92799.53;2106212;28;20043;-80
2023/07/30 00:25:43;;;;;;;2.13;1.92;;;;;;;15.85;100.00;92804.34;2106906;28;20572;-80
2023/07/30 00:26:44;;;;;;;3.88;2.20;;;;;;;15.79;100.00;92800.78;2094950;28;20033;-79
2023/07/30 00:27:45;;;;;;;2.10;1.90;;;;;;;15.79;100.00;92800.78;2098616;28;20422;-80
2023/07/30 00:28:46;;;;;;;4.60;2.10;;;;;;;15.72;100.00;92800.38;2098518;28;20047;-80
2023/07/30 00:29:47;;;;;;;3.70;2.03;;;;;;;15.66;100.00;92802.19;2094382;28;20112;-79
2023/07/30 00:30:48;;;;;;;2.47;2.28;;;;;;;15.67;100.00;92803.66;2098864;28;20081;-80
2023/07/30 00:31:49;;;;;;;4.82;2.38;;;;;;;15.61;100.00;92804.25;2097816;28;20039;-79
2023/07/30 00:32:50;;;;;;;2.30;2.10;;;;;;;15.63;100.00;92811.91;2099628;28;20040;-79
2023/07/30 00:33:51;;;;;;;3.08;2.15;;;;;;;15.82;100.00;92807.94;2098365;28;20020;-80
2023/07/30 00:34:52;;;;;;;2.72;2.00;;;;;;;15.77;100.00;92807.84;2093663;28;20036;-80
2023/07/30 00:36:15;;;;;;;2.30;2.10;;;;;;;15.73;100.00;92807.25;2098591;28;20021;-79
2023/07/30 00:37:16;;;;;;;2.40;1.70;;;;;;;15.64;100.00;92810.72;2098500;28;20480;-80
2023/07/30 00:38:18;;;;;;;4.07;2.30;;;;;;;15.65;100.00;92803.38;2098373;28;20052;-80
2023/07/30 00:39:19;;;;;;;3.25;2.00;;;;;;;15.57;100.00;92805.63;2107179;28;20024;-80
2023/07/30 00:40:20;;;;;;;4.22;2.60;;;;;;;15.72;100.00;92811.91;2104368;28;20035;-80
2023/07/30 00:41:21;;;;;;;3.15;2.50;;;;;;;15.77;100.00;92813.22;2099215;28;20024;-80
2023/07/30 00:42:22;;;;;;;2.08;1.90;;;;;;;15.69;100.00;92812.06;2110297;28;20027;-79
2023/07/30 00:43:22;;;;;;;3.38;1.80;;;;;;;15.65;100.00;92814.91;2114060;28;20102;-80
2023/07/30 00:44:23;;;;;;;3.00;2.25;;;;;;;15.64;100.00;92809.97;2105673;28;20036;-79
2023/07/30 00:45:24;;;;;;;3.72;2.10;;;;;;;15.56;100.00;92812.97;2114747;28;20114;-80
2023/07/30 00:46:25;;;;;;;5.63;1.90;;;;;;;15.53;100.00;92815.81;2101033;28;20020;-80
2023/07/30 00:47:27;;;;;;;1.83;1.73;;;;;;;15.44;100.00;92816.59;2096837;28;20031;-80
2023/07/30 00:48:29;;;;;;;3.83;1.80;;;;;;;15.47;100.00;92825.72;2106119;28;20024;-81
2023/07/30 00:49:30;;;;;;;2.10;1.90;;;;;;;15.45;100.00;92814.66;2098147;28;20043;-80
2023/07/30 00:50:32;;;;;;;3.80;2.28;;;;;;;15.45;100.00;92812.72;2093091;28;20048;-80
2023/07/30 00:51:34;;;;;;;2.35;2.10;;;;;;;15.38;100.00;92817.69;2098476;28;20048;-80
2023/07/30 00:52:35;;;;;;;2.40;2.20;;;;;;;15.41;100.00;92812.13;2081807;28;20059;-80
2023/07/30 00:53:37;;;;;;;2.15;1.95;;;;;;;15.40;100.00;92813.31;2090534;28;20059;-80
2023/07/30 00:54:39;;;;;;;2.90;2.10;;;;;;;15.44;100.00;92815.84;2098631;28;20442;-79
2023/07/30 00:55:40;;;;;;;3.05;2.13;;;;;;;15.40;100.00;92817.94;2098491;28;20024;-80
2023/07/30 00:56:50;;;;;;;2.28;2.08;;;;;;;15.57;100.00;92809.06;2106355;28;20510;-80
2023/07/30 00:57:51;;;;;;;;;;;;;;;15.50;100.00;92816.75;2107757;28;20024;-79
2023/07/30 00:58:53;;;;;;;2.10;1.90;;;;;;;15.59;100.00;92812.06;2089513;28;19913;-80
2023/07/30 00:59:55;;;;;;;3.88;1.95;;;;;;;15.57;100.00;92811.75;2094715;28;20063;-80
2023/07/30 01:00:56;;;;;;;2.92;1.90;;;;;;;15.56;100.00;92815.66;2099480;28;20127;-80
2023/07/30 01:01:57;;;;;;;2.97;2.00;;;;;;;15.52;100.00;92817.78;2091510;28;20020;-80
2023/07/30 01:03:00;;;;;;;3.72;2.15;;;;;;;15.48;100.00;92824.53;2081791;28;20084;-81
2023/07/30 01:04:01;;;;;;;3.03;1.88;;;;;;;15.41;100.00;92825.59;2095163;28;20021;-80
2023/07/30 01:05:05;;;;;;;2.70;2.20;;;;;;;15.73;100.00;92826.84;2097622;28;20524;-79
2023/07/30 01:06:07;;;;;;;1.73;1.63;;;;;;;15.70;100.00;92827.03;2098462;28;20134;-79
2023/07/30 01:07:07;;;;;;;2.40;2.00;;;;;;;15.64;100.00;92823.44;2101688;28;20023;-80
2023/07/30 01:08:09;;;;;;;2.53;1.90;;;;;;;15.59;100.00;92822.09;2089907;28;20021;-80
2023/07/30 01:09:25;;;;;;;2.10;1.90;;;;;;;15.48;100.00;92827.97;2089742;28;20128;-80
2023/07/30 01:10:27;;;;;;;4.85;2.20;;;;;;;15.39;100.00;92824.53;2100400;28;20072;-79
2023/07/30 01:11:29;;;;;;;2.65;1.98;;;;;;;15.54;100.00;92822.69;2106396;28;20439;-79
2023/07/30 01:12:31;;;;;;;2.40;1.92;;;;;;;15.43;100.00;92819.75;2099208;28;20390;-81
2023/07/30 01:13:35;;;;;;;2.40;1.90;;;;;;;15.41;100.00;92822.13;2089457;28;20545;-80
2023/07/30 01:14:37;;;;;;;2.35;2.15;;;;;;;15.40;100.00;92824.09;2082238;28;20810;-80
2023/07/30 01:15:40;;;;;;;2.03;1.85;;;;;;;15.27;100.00;92832.34;2102272;28;20032;-80
2023/07/30 01:16:41;;;;;;;2.80;2.40;;;;;;;15.28;100.00;92827.72;2106422;28;20039;-80
2023/07/30 01:17:42;;;;;;;2.65;1.80;;;;;;;15.18;100.00;92826.22;2105769;28;20368;-79
2023/07/30 01:18:43;;;;;;;2.22;2.00;;;;;;;15.26;100.00;92819.34;2105341;28;20421;-79
2023/07/30 01:19:44;;;;;;;4.53;2.28;;;;;;;15.23;100.00;92823.69;2093478;28;20059;-79
2023/07/30 01:20:45;;;;;;;2.20;2.00;;;;;;;15.18;100.00;92815.47;2097489;28;20024;-80
2023/07/30 01:21:46;;;;;;;2.17;1.98;;;;;;;15.13;100.00;92813.38;2101751;28;20045;-79
2023/07/30 01:22:48;;;;;;;1.80;1.70;;;;;;;15.07;100.00;92810.56;2097847;28;20035;-80
2023/07/30 01:23:49;;;;;;;2.08;1.95;;;;;;;15.08;100.00;92817.44;2097747;28;20024;-79
2023/07/30 01:24:50;;;;;;;2.42;2.20;;;;;;;15.10;100.00;92820.41;2101570;28;20833;-80
2023/07/30 01:26:03;;;;;;;2.13;1.90;;;;;;;15.10;100.00;92817.72;2097946;28;20047;-80
2023/07/30 01:27:07;;;;;;;2.45;1.83;;;;;;;15.04;100.00;92822.97;2089708;28;20272;-80
2023/07/30 01:28:12;;;;;;;2.42;2.08;;;;;;;14.98;100.00;92815.97;2097287;28;20078;-80
2023/07/30 01:29:24;;;;;;;2.42;1.80;;;;;;;14.84;100.00;92815.38;2104972;28;20383;-80
2023/07/30 01:30:51;;;;;;;2.20;2.00;;;;;;;14.81;100.00;92812.84;2106989;28;20024;-80
2023/07/30 01:31:57;;;;;;;2.15;1.95;;;;;;;14.80;100.00;92816.72;2098448;28;20037;-79
2023/07/30 01:32:58;;;;;;;2.47;2.13;;;;;;;14.78;100.00;92825.22;2101733;28;20020;-79
2023/07/30 01:34:03;;;;;;;2.03;1.83;;;;;;;14.84;100.00;92826.16;2099542;28;20027;-79
2023/07/30 01:35:08;;;;;;;2.08;1.88;;;;;;;14.86;100.00;92828.38;2099068;28;20055;-80
2023/07/30 01:36:14;;;;;;;2.47;1.80;;;;;;;14.81;100.00;92820.91;2106208;28;20024;-80
2023/07/30 01:37:17;;;;;;;2.20;2.00;;;;;;;14.79;100.00;92831.34;2096744;28;20476;-80
2023/07/30 01:38:18;;;;;;;2.85;2.08;;;;;;;14.73;100.00;92825.84;2097860;28;20031;-80
2023/07/30 01:39:19;;;;;;;3.75;1.95;;;;;;;14.66;100.00;92818.06;2096840;28;20021;-79
2023/07/30 01:40:21;;;;;;;4.05;1.80;;;;;;;14.72;100.00;92835.09;2095580;28;20013;-80
2023/07/30 01:41:24;;;;;;;2.03;1.88;;;;;;;14.74;100.00;92834.66;2097880;28;20487;-80
2023/07/30 01:42:31;;;;;;;4.43;2.13;;;;;;;14.72;100.00;92832.41;2100211;28;20020;-81
2023/07/30 01:43:32;;;;;;;3.05;2.05;;;;;;;14.74;100.00;92830.00;2099830;28;20115;-79
2023/07/30 01:44:33;;;;;;;2.42;2.22;;;;;;;14.65;100.00;92831.97;2099296;28;20039;-80
2023/07/30 01:45:34;;;;;;;2.20;2.00;;;;;;;14.65;100.00;92834.66;2101740;28;20025;-80
2023/07/30 01:46:35;;;;;;;3.67;2.03;;;;;;;14.68;100.00;92825.69;2097337;28;20039;-81
2023/07/30 01:47:36;;;;;;;2.40;2.10;;;;;;;14.59;100.00;92829.13;2097350;28;20024;-80
2023/07/30 01:48:37;;;;;;;2.00;1.90;;;;;;;14.65;100.00;92827.31;2105911;28;20027;-80
2023/07/30 01:49:38;;;;;;;3.45;2.22;;;;;;;14.52;100.00;92824.78;2106032;28;20020;-79
2023/07/30 01:50:39;;;;;;;2.25;1.73;;;;;;;14.50;100.00;92821.81;2097629;28;20548;-80
2023/07/30 01:51:43;;;;;;;2.25;2.05;;;;;;;14.51;100.00;92825.22;2106119;28;20023;-81
2023/07/30 01:52:44;;;;;;;2.72;1.80;;;;;;;14.49;100.00;92828.38;2097397;28;20032;-79
2023/07/30 01:53:45;;;;;;;2.67;2.10;;;;;;;14.51;100.00;92828.66;2093218;28;20017;-80
2023/07/30 01:54:46;;;;;;;2.40;2.20;;;;;;;14.45;100.00;92830.44;2100633;28;20039;-80
2023/07/30 01:55:47;;;;;;;3.70;1.98;;;;;;;14.40;100.00;92824.88;2106777;28;20028;-79
2023/07/30 01:56:48;;;;;;;3.08;1.88;;;;;;;14.39;100.00;92820.72;2105629;28;20027;-80
2023/07/30 01:57:49;;;;;;;2.92;1.80;;;;;;;14.28;100.00;92813.84;2106279;28;20023;-80
2023/07/30 01:58:50;;;;;;;2.33;1.85;;;;;;;14.24;100.00;92818.59;2089556;28;20493;-79
2023/07/30 01:59:51;;;;;;;2.22;1.90;;;;;;;14.24;100.00;92815.91;2083576;28;20021;-79
2023/07/30 02:00:51;;;;;;;2.08;1.88;;;;;;;14.20;100.00;92814.56;2106263;28;20163;-79
2023/07/30 02:01:52;;;;;;;2.08;1.83;;;;;;;14.13;100.00;92820.22;2097510;28;20086;-79
2023/07/30 02:02:53;;;;;;;2.40;2.20;;;;;;;14.11;100.00;92818.00;2097695;28;20021;-80
2023/07/30 02:03:54;;;;;;;2.45;1.92;;;;;;;14.13;100.00;92815.59;2105319;28;20047;-80
2023/07/30 02:04:55;;;;;;;3.90;2.38;;;;;;;14.18;100.00;92811.56;2088422;28;20461;-80
2023/07/30 02:05:56;;;;;;;3.28;2.20;;;;;;;14.17;100.00;92815.44;2097161;28;20025;-79
2023/07/30 02:06:57;;;;;;;2.35;1.90;;;;;;;14.17;100.00;92815.44;2106171;28;20028;-80
2023/07/30 02:07:58;;;;;;;2.25;2.05;;;;;;;14.18;100.00;92816.94;2100607;28;20035;-79
2023/07/30 02:08:59;;;;;;;3.78;2.50;;;;;;;14.08;100.00;92818.88;2101063;28;20024;-79
2023/07/30 02:10:00;;;;;;;2.42;2.10;;;;;;;14.08;100.00;92821.56;2097742;28;20089;-79
2023/07/30 02:11:01;;;;;;;2.28;2.08;;;;;;;14.10;100.00;92822.63;2098987;28;20051;-80
2023/07/30 02:12:02;;;;;;;3.40;1.95;;;;;;;14.08;100.00;92813.50;2107697;28;20099;-80
2023/07/30 02:13:03;;;;;;;2.70;1.90;;;;;;;14.07;100.00;92814.69;2097338;28;20454;-79
2023/07/30 02:14:04;;;;;;;2.17;1.98;;;;;;;14.04;100.00;92818.25;2102779;28;20028;-80
2023/07/30 02:15:06;;;;;;;2.60;2.10;;;;;;;14.02;100.00;92823.34;2105931;28;20051;-79
2023/07/30 02:16:07;;;;;;;2.72;2.10;;;;;;;14.05;100.00;92825.16;2105719;28;20027;-80
2023/07/30 02:17:08;;;;;;;3.42;1.60;;;;;;;14.02;100.00;92820.66;2097420;28;20044;-79
2023/07/30 02:18:10;;;;;;;3.70;2.00;;;;;;;13.87;100.00;92812.38;2089029;28;20048;-80
2023/07/30 02:19:11;;;;;;;3.28;1.90;;;;;;;13.82;100.00;92829.09;2097720;28;20029;-80
2023/07/30 02:22:15;;;;;;;3.90;2.17;;;;;;;13.75;100.00;92829.38;2139601;27;20792;-80
2023/07/30 02:23:16;;;;;;;3.38;1.90;;;;;;;13.80;100.00;92832.22;2125970;27;20107;-79
2023/07/30 02:24:17;;;;;;;2.80;2.10;;;;;;;13.80;100.00;92831.50;2122457;27;20015;-80
2023/07/30 02:25:19;;;;;;;2.00;1.90;;;;;;;13.84;100.00;92830.16;2129712;27;20015;-80
2023/07/30 02:26:20;;;;;;;7.78;2.30;;;;;;;13.80;100.00;92828.81;2130048;27;20058;-79
2023/07/30 02:27:21;;;;;;;2.15;1.95;;;;;;;13.72;100.00;92824.91;2121731;28;20019;-80
2023/07/30 02:28:22;;;;;;;2.65;2.05;;;;;;;13.72;100.00;92824.91;2118134;28;20016;-79
2023/07/30 02:29:23;;;;;;;3.17;2.10;;;;;;;13.66;100.00;92830.09;2123513;27;20038;-80
2023/07/30 02:30:24;;;;;;;2.40;2.03;;;;;;;13.62;100.00;92832.16;2130219;27;20107;-80
2023/07/30 02:31:25;;;;;;;2.30;2.10;;;;;;;13.58;100.00;92829.63;2121367;28;20015;-79
2023/07/30 02:32:26;;;;;;;2.40;1.83;;;;;;;13.67;100.00;92830.84;2104885;28;20067;-80
2023/07/30 02:33:28;;;;;;;3.35;2.28;;;;;;;13.59;100.00;92825.00;2112000;27;20504;-80
2023/07/30 02:34:29;;;;;;;1.67;1.58;;;;;;;13.64;100.00;92821.72;2120788;27;20064;-80
2023/07/30 02:35:47;;;;;;;1.80;1.70;;;;;;;13.63;100.00;92827.53;2120968;27;20047;-79
2023/07/30 02:36:49;;;;;;;4.03;2.00;;;;;;;13.71;100.00;92826.09;2116115;27;20422;-80
2023/07/30 02:37:49;;;;;;;3.70;2.00;;;;;;;13.68;100.00;92826.97;2130370;27;20023;-79
2023/07/30 02:38:50;;;;;;;3.90;2.30;;;;;;;13.57;100.00;92830.81;2127188;27;20031;-79
2023/07/30 02:39:51;;;;;;;2.22;2.03;;;;;;;13.65;100.00;92827.84;2130872;27;20034;-80
2023/07/30 02:40:53;;;;;;;2.58;1.88;;;;;;;13.65;100.00;92822.47;2127541;27;20027;-79
2023/07/30 02:41:54;;;;;;;2.33;2.00;;;;;;;13.63;100.00;92824.84;2111323;28;20088;-79
2023/07/30 02:42:55;;;;;;;1.83;1.73;;;;;;;13.67;100.00;92825.47;2110023;28;20028;-80
2023/07/30 02:43:56;;;;;;;2.10;1.63;;;;;;;13.77;100.00;92825.06;2116991;28;20019;-80
2023/07/30 02:44:56;;;;;;;2.22;1.90;;;;;;;13.79;100.00;92828.06;2117537;28;20377;-79
2023/07/30 02:45:57;;;;;;;2.13;1.92;;;;;;;13.78;100.00;92825.78;2112743;28;20023;-80
2023/07/30 02:46:59;;;;;;;2.40;2.20;;;;;;;13.80;100.00;92820.75;2110430;28;20418;-80
2023/07/30 02:48:00;;;;;;;2.25;1.85;;;;;;;13.80;100.00;92818.81;2113182;28;20387;-79
2023/07/30 02:49:04;;;;;;;6.88;1.98;;;;;;;13.91;100.00;92817.63;2117444;28;20024;-80
2023/07/30 02:50:08;;;;;;;4.00;2.33;;;;;;;13.89;100.00;92817.34;2113255;28;20027;-80
2023/07/30 02:51:09;;;;;;;3.15;2.03;;;;;;;14.01;100.00;92819.16;2096853;28;20021;-80
2023/07/30 02:52:10;;;;;;;3.20;2.05;;;;;;;14.03;100.00;92820.19;2107566;28;20012;-80
2023/07/30 02:53:11;;;;;;;2.20;2.00;;;;;;;14.09;100.00;92825.72;2120096;28;20027;-79
2023/07/30 02:54:13;;;;;;;2.50;2.13;;;;;;;14.10;100.00;92821.88;2112881;28;20024;-79
2023/07/30 02:55:16;;;;;;;5.03;2.38;;;;;;;14.04;100.00;92821.69;2120074;28;20027;-79
2023/07/30 02:56:17;;;;;;;2.15;1.92;;;;;;;14.11;100.00;92820.69;2121195;28;20059;-79
2023/07/30 02:57:17;;;;;;;3.63;2.20;;;;;;;14.10;100.00;92819.19;2121352;28;20023;-79
2023/07/30 02:58:18;;;;;;;2.50;2.30;;;;;;;14.11;100.00;92815.28;2112789;28;20026;-79
2023/07/30 02:59:19;;;;;;;2.42;2.22;;;;;;;14.12;100.00;92816.78;2113171;28;20027;-80
2023/07/30 03:00:20;;;;;;;3.58;2.50;;;;;;;14.06;100.00;92813.94;2105015;28;20028;-80
2023/07/30 03:01:22;;;;;;;2.42;2.22;;;;;;;14.05;100.00;92812.47;2112715;28;20537;-79
2023/07/30 03:02:22;;;;;;;2.38;2.17;;;;;;;14.07;100.00;92817.38;2104545;28;20028;-80
2023/07/30 03:03:23;;;;;;;2.30;1.98;;;;;;;14.07;100.00;92812.75;2105063;28;20019;-81
2023/07/30 03:04:24;;;;;;;3.03;2.03;;;;;;;14.11;100.00;92815.28;2107515;28;20420;-79
2023/07/30 03:05:27;;;;;;;4.40;2.58;;;;;;;14.14;100.00;92813.66;2121379;28;20035;-81
2023/07/30 03:06:28;;;;;;;2.70;2.28;;;;;;;14.10;100.00;92817.25;2121033;28;20031;-81
2023/07/30 03:07:35;;;;;;;4.97;2.20;;;;;;;14.14;100.00;92805.59;2104401;28;20031;-81
2023/07/30 03:08:36;;;;;;;2.25;2.05;;;;;;;14.17;100.00;92810.06;2114077;28;20031;-81
2023/07/30 03:09:37;;;;;;;3.55;2.10;;;;;;;14.22;100.00;92812.16;2120703;28;20052;-81
2023/07/30 03:10:38;;;;;;;3.40;2.53;;;;;;;14.18;100.00;92808.88;2120710;28;20038;-81
2023/07/30 03:11:39;;;;;;;3.00;2.13;;;;;;;14.20;100.00;92801.88;2119223;28;20094;-81
2023/07/30 03:12:40;;;;;;;4.00;2.28;;;;;;;14.23;100.00;92798.31;2113529;28;20032;-81
2023/07/30 03:13:41;;;;;;;3.78;2.30;;;;;;;14.17;100.00;92799.31;2115489;28;20027;-82
2023/07/30 03:14:42;;;;;;;2.30;2.10;;;;;;;14.19;100.00;92802.31;2104609;28;20032;-82
2023/07/30 03:15:43;;;;;;;2.55;2.13;;;;;;;14.06;100.00;92805.88;2112862;28;20043;-81
2023/07/30 03:16:44;;;;;;;3.35;2.25;;;;;;;14.06;100.00;92805.88;2121058;28;20043;-81
2023/07/30 03:17:45;;;;;;;2.47;2.28;;;;;;;14.11;100.00;92802.59;2112902;28;20031;-81
2023/07/30 03:18:46;;;;;;;4.75;1.98;;;;;;;14.20;100.00;92796.50;2104108;28;20023;-82
2023/07/30 03:19:47;;;;;;;6.57;2.40;;;;;;;14.10;100.00;92798.44;2112877;28;20604;-82
2023/07/30 03:20:48;;;;;;;3.13;2.10;;;;;;;14.11;100.00;92796.47;2112476;28;20019;-82
2023/07/30 03:21:49;;;;;;;5.90;2.20;;;;;;;14.02;100.00;92805.28;2111472;28;20047;-82
2023/07/30 03:22:50;;;;;;;3.38;1.77;;;;;;;14.07;100.00;92799.31;2112761;28;20024;-81
2023/07/30 03:23:51;;;;;;;2.38;2.00;;;;;;;14.14;100.00;92800.97;2107409;28;20066;-81
2023/07/30 03:24:52;;;;;;;2.40;2.20;;;;;;;14.10;100.00;92801.13;2112800;28;20018;-81
2023/07/30 03:25:52;;;;;;;2.35;2.00;;;;;;;14.11;100.00;92805.28;2112365;28;20031;-81
2023/07/30 03:26:56;;;;;;;3.08;2.60;;;;;;;14.07;100.00;92810.06;2112683;28;20073;-81
2023/07/30 03:27:57;;;;;;;3.90;2.10;;;;;;;14.02;100.00;92807.22;2121305;28;20045;-82
2023/07/30 03:28:58;;;;;;;4.15;2.20;;;;;;;14.02;100.00;92810.66;2105160;28;20401;-81
2023/07/30 03:29:59;;;;;;;3.22;2.47;;;;;;;14.03;100.00;92812.13;2101260;28;20063;-82
2023/07/30 03:31:00;;;;;;;3.15;2.17;;;;;;;14.06;100.00;92808.56;2112813;28;20117;-82
2023/07/30 03:32:01;;;;;;;2.53;2.08;;;;;;;14.04;100.00;92813.63;2112726;28;20023;-81
2023/07/30 03:33:02;;;;;;;2.63;2.38;;;;;;;14.08;100.00;92813.50;2118944;28;20426;-82
2023/07/30 03:34:03;;;;;;;2.70;2.22;;;;;;;14.03;100.00;92812.13;2106890;28;20931;-83
2023/07/30 03:35:04;;;;;;;3.03;2.20;;;;;;;14.02;100.00;92810.66;2095307;28;20029;-81
2023/07/30 03:36:05;;;;;;;2.88;2.22;;;;;;;13.97;100.00;92808.56;2090398;28;20033;-82
2023/07/30 03:37:18;;;;;;;2.30;2.05;;;;;;;13.98;100.00;92803.91;2090443;28;20032;-82
2023/07/30 03:38:19;;;;;;;2.30;2.10;;;;;;;13.96;100.00;92812.44;2111726;27;20128;-81
2023/07/30 03:39:20;;;;;;;2.53;2.20;;;;;;;13.94;100.00;92811.38;2123009;27;20040;-81
2023/07/30 03:40:21;;;;;;;3.17;1.92;;;;;;;14.12;100.00;92814.09;2107181;28;20040;-81
2023/07/30 03:41:22;;;;;;;2.95;2.17;;;;;;;14.08;100.00;92816.94;2103132;28;20023;-82
2023/07/30 03:42:23;;;;;;;2.45;2.17;;;;;;;14.08;100.00;92814.25;2111943;28;20027;-82
2023/07/30 03:43:24;;;;;;;2.58;2.22;;;;;;;14.10;100.00;92811.88;2100102;28;20025;-81
2023/07/30 03:44:25;;;;;;;2.95;2.47;;;;;;;14.09;100.00;92813.06;2099628;28;20033;-82
2023/07/30 03:45:26;;;;;;;5.68;2.30;;;;;;;14.08;100.00;92810.81;2107051;28;20022;-81
2023/07/30 03:46:27;;;;;;;2.67;2.47;;;;;;;14.14;100.00;92817.09;2098648;28;20025;-81
2023/07/30 03:47:28;;;;;;;4.45;2.35;;;;;;;14.43;100.00;92805.19;2097790;28;20025;-81
2023/07/30 03:48:29;;;;;;;2.53;2.33;;;;;;;14.36;100.00;92814.31;2107822;28;20024;-81
2023/07/30 03:49:30;;;;;;;5.65;2.53;;;;;;;14.36;100.00;92815.03;2116145;28;20078;-81
2023/07/30 03:50:31;;;;;;;8.82;2.40;;;;;;;14.36;100.00;92825.81;2116051;28;20285;-82
2023/07/30 03:51:32;;;;;;;2.63;2.25;;;;;;;14.56;100.00;92817.31;2115947;28;20028;-82
2023/07/30 03:52:33;;;;;;;3.00;2.25;;;;;;;14.46;100.00;92820.44;2108386;28;20039;-81
2023/07/30 03:53:34;;;;;;;2.20;2.00;;;;;;;14.45;100.00;92829.69;2108975;28;20148;-81
2023/07/30 03:54:35;;;;;;;3.45;2.17;;;;;;;14.46;100.00;92820.44;2114557;28;20029;-79
2023/07/30 03:55:36;;;;;;;2.67;2.08;;;;;;;14.43;100.00;92816.69;2113136;28;20019;-79
2023/07/30 03:56:37;;;;;;;2.33;2.13;;;;;;;14.47;100.00;92814.59;2098584;28;20492;-79
2023/07/30 03:57:37;;;;;;;3.00;2.25;;;;;;;14.48;100.00;92815.34;2095089;28;20052;-79
2023/07/30 03:58:38;;;;;;;2.72;2.40;;;;;;;14.52;100.00;92818.66;2106863;28;20024;-80
2023/07/30 03:59:39;;;;;;;3.20;2.60;;;;;;;14.59;100.00;92819.13;2106272;28;20024;-79
2023/07/30 04:00:40;;;;;;;2.30;2.10;;;;;;;14.71;100.00;92817.47;2106431;28;20020;-79
2023/07/30 04:01:41;;;;;;;5.05;2.33;;;;;;;14.65;100.00;92813.13;2106784;28;20020;-79
2023/07/30 04:02:42;;;;;;;4.03;2.05;;;;;;;14.60;100.00;92812.53;2104335;28;20492;-78
2023/07/30 04:03:43;;;;;;;2.78;2.13;;;;;;;14.56;100.00;92811.19;2114824;28;20055;-79
2023/07/30 04:04:46;;;;;;;2.60;2.20;;;;;;;14.48;100.00;92816.09;2113900;28;20028;-79
2023/07/30 04:05:46;;;;;;;2.60;2.08;;;;;;;14.57;100.00;92813.44;2115891;28;20148;-79
2023/07/30 04:06:49;;;;;;;3.63;2.13;;;;;;;14.81;100.00;92820.91;2114600;28;20020;-79
2023/07/30 04:07:51;;;;;;;2.50;2.30;;;;;;;15.01;100.00;92804.28;2106936;28;20038;-79
2023/07/30 04:08:52;;;;;;;2.47;2.28;;;;;;;14.89;100.00;92819.41;2115392;28;20407;-79
2023/07/30 04:09:52;;;;;;;2.30;2.10;;;;;;;14.84;100.00;92820.75;2112387;28;20290;-81
2023/07/30 04:10:53;;;;;;;5.65;3.00;;;;;;;14.78;100.00;92830.63;2106868;28;20028;-82
2023/07/30 04:11:54;;;;;;;2.58;2.15;;;;;;;14.72;100.00;92832.41;2106756;28;20027;-81
2023/07/30 04:13:07;;;;;;;2.85;2.00;;;;;;;14.69;100.00;92827.94;2102697;28;20103;-81
2023/07/30 04:14:09;;;;;;;2.88;2.08;;;;;;;14.60;100.00;92825.25;2107174;28;20020;-82
2023/07/30 04:15:10;;;;;;;2.33;1.95;;;;;;;14.58;100.00;92831.06;2113459;28;20023;-82
2023/07/30 04:16:10;;;;;;;2.30;2.10;;;;;;;14.58;100.00;92838.41;2114957;28;20081;-81
2023/07/30 04:17:11;;;;;;;2.60;2.28;;;;;;;14.53;100.00;92841.66;2115970;28;20035;-82
2023/07/30 04:18:12;;;;;;;3.95;2.28;;;;;;;14.47;100.00;92843.44;2103086;28;20020;-82
2023/07/30 04:19:16;;;;;;;2.38;2.00;;;;;;;14.37;100.00;92840.00;2098357;28;20021;-82
2023/07/30 04:20:17;;;;;;;4.47;2.30;;;;;;;14.61;100.00;92851.69;2108513;28;20491;-81
2023/07/30 04:21:18;;;;;;;2.40;2.20;;;;;;;14.55;100.00;92844.66;2114790;28;20089;-80
2023/07/30 04:22:19;;;;;;;4.15;2.03;;;;;;;14.52;100.00;92856.31;2115052;28;20507;-79
2023/07/30 04:23:20;;;;;;;2.40;2.20;;;;;;;14.46;100.00;92850.75;2114546;28;20024;-80
2023/07/30 04:24:21;;;;;;;2.88;2.08;;;;;;;14.47;100.00;92851.50;2115736;28;20026;-79
2023/07/30 04:25:22;;;;;;;2.40;2.20;;;;;;;14.35;100.00;92847.75;2106625;28;20089;-79
2023/07/30 04:26:23;;;;;;;3.72;2.47;;;;;;;14.32;100.00;92859.41;2098015;28;20028;-80
2023/07/30 04:27:24;;;;;;;2.78;2.38;;;;;;;14.46;100.00;92858.81;2098450;28;20044;-79
2023/07/30 04:28:25;;;;;;;3.78;2.25;;;;;;;14.48;100.00;92855.69;2114985;28;20356;-80
2023/07/30 04:29:26;;;;;;;2.30;2.10;;;;;;;14.46;100.00;92855.38;2114269;28;20023;-80
2023/07/30 04:30:27;;;;;;;2.67;2.13;;;;;;;14.65;100.00;92853.47;2105533;28;20031;-79
2023/07/30 04:31:28;;;;;;;2.45;2.25;;;;;;;14.54;100.00;92851.25;2098270;28;20386;-80
2023/07/30 04:32:29;;;;;;;2.97;2.38;;;;;;;14.52;100.00;92856.31;2090064;28;20429;-79
2023/07/30 04:33:37;;;;;;;2.70;2.03;;;;;;;14.46;100.00;92853.44;2094638;28;20078;-79
2023/07/30 04:34:38;;;;;;;2.85;1.90;;;;;;;14.51;100.00;92855.56;2107523;28;20460;-80
2023/07/30 04:35:42;;;;;;;2.25;2.08;;;;;;;14.40;100.00;92849.09;2106048;28;20048;-79
2023/07/30 04:36:45;;;;;;;2.60;2.25;;;;;;;14.47;100.00;92854.19;2098696;28;20499;-79
2023/07/30 04:37:46;;;;;;;3.80;1.92;;;;;;;14.45;100.00;92857.34;2109656;28;20023;-79
2023/07/30 04:38:47;;;;;;;2.08;1.88;;;;;;;14.48;100.00;92853.00;2106158;28;20077;-80
2023/07/30 04:39:49;;;;;;;2.55;2.20;;;;;;;14.48;100.00;92861.06;2101619;28;20565;-79
2023/07/30 04:40:49;;;;;;;2.30;2.10;;;;;;;14.52;100.00;92861.69;2107227;28;20074;-79
2023/07/30 04:41:50;;;;;;;4.20;1.98;;;;;;;14.55;100.00;92850.03;2112877;28;20023;-80
2023/07/30 04:42:51;;;;;;;2.35;2.15;;;;;;;14.63;100.00;92847.81;2114792;28;20023;-79
2023/07/30 04:43:52;;;;;;;2.72;2.42;;;;;;;14.61;100.00;92857.06;2106556;28;20492;-80
2023/07/30 04:44:53;;;;;;;2.10;1.90;;;;;;;14.67;100.00;92854.53;2110527;28;20028;-80
2023/07/30 04:45:54;;;;;;;2.55;2.20;;;;;;;14.68;100.00;92858.72;2106184;28;20020;-79
2023/07/30 04:46:56;;;;;;;2.03;1.83;;;;;;;14.65;100.00;92858.88;2113033;28;20093;-80
2023/07/30 04:48:00;;;;;;;2.80;1.80;;;;;;;14.72;100.00;92853.19;2115622;28;20050;-82
2023/07/30 04:49:04;;;;;;;2.10;1.63;;;;;;;14.70;100.00;92847.50;2114713;28;20046;-81